createdAt,value
2023-01-12T00:02:18.606Z,8.90
2023-01-12T00:05:04.230Z,8.90
2023-01-12T00:07:50.013Z,9.10
2023-01-12T00:10:35.668Z,9.10
2023-01-12T00:13:21.288Z,9.00
2023-01-12T00:16:26.309Z,8.70
2023-01-12T00:19:17.221Z,8.70
2023-01-12T00:22:08.892Z,8.40
2023-01-12T00:24:55.941Z,8.30
2023-01-12T00:27:41.758Z,8.00
2023-01-12T00:30:27.584Z,8.10
2023-01-12T00:33:14.082Z,7.80
2023-01-12T00:36:03.006Z,7.80
2023-01-12T00:38:48.487Z,8.00
2023-01-12T00:41:55.176Z,7.90
2023-01-12T00:44:59.843Z,8.00
2023-01-12T00:47:45.361Z,7.80
2023-01-12T00:50:30.933Z,8.00
2023-01-12T00:53:16.904Z,7.80
2023-01-12T00:56:03.785Z,8.00
2023-01-12T00:58:49.465Z,7.90
2023-01-12T01:01:35.233Z,7.90
2023-01-12T01:04:21.364Z,7.90
2023-01-12T01:07:06.770Z,8.10
2023-01-12T01:09:52.609Z,8.20
2023-01-12T01:12:37.898Z,8.30
2023-01-12T01:15:23.458Z,8.20
2023-01-12T01:18:09.573Z,8.30
2023-01-12T01:20:55.869Z,8.20
2023-01-12T01:23:42.958Z,8.00
2023-01-12T01:26:30.844Z,8.10
2023-01-12T01:29:16.654Z,8.10
2023-01-12T01:32:02.369Z,8.20
2023-01-12T01:34:48.280Z,8.00
2023-01-12T01:37:34.041Z,8.00
2023-01-12T01:40:19.532Z,8.10
2023-01-12T01:43:05.283Z,7.80
2023-01-12T01:46:11.924Z,7.00
2023-01-12T01:49:05.018Z,6.50
2023-01-12T01:51:53.492Z,6.30
2023-01-12T01:54:48.322Z,6.40
2023-01-12T01:57:42.382Z,7.20
2023-01-12T02:00:28.195Z,7.50
2023-01-12T02:03:16.318Z,7.80
2023-01-12T02:06:02.251Z,7.50
2023-01-12T02:09:17.826Z,7.70
2023-01-12T02:12:23.457Z,7.80
2023-01-12T02:15:27.778Z,7.90
2023-01-12T02:18:22.437Z,8.00
2023-01-12T02:21:45.839Z,8.00
2023-01-12T02:24:43.714Z,8.00
2023-01-12T02:27:41.363Z,8.00
2023-01-12T02:30:36.366Z,8.00
2023-01-12T02:33:30.956Z,8.10
2023-01-12T02:36:37.570Z,8.10
2023-01-12T02:39:28.430Z,8.10
2023-01-12T02:42:42.734Z,8.10
2023-01-12T02:45:57.499Z,7.90
2023-01-12T02:49:09.589Z,7.50
2023-01-12T02:52:03.057Z,7.30
2023-01-12T02:54:49.858Z,7.40
2023-01-12T02:57:37.401Z,7.50
2023-01-12T03:00:23.493Z,7.60
2023-01-12T03:03:09.214Z,7.50
2023-01-12T03:05:58.025Z,7.50
2023-01-12T03:08:45.325Z,7.50
2023-01-12T03:11:31.152Z,7.50
2023-01-12T03:14:17.991Z,7.30
2023-01-12T03:17:07.797Z,7.00
2023-01-12T03:19:57.308Z,7.10
2023-01-12T03:22:45.546Z,7.20
2023-01-12T03:25:33.660Z,7.40
2023-01-12T03:28:21.415Z,7.50
2023-01-12T03:31:13.264Z,7.60
2023-01-12T03:33:59.523Z,7.50
2023-01-12T03:36:54.220Z,7.50
2023-01-12T03:40:01.616Z,7.00
2023-01-12T03:43:04.594Z,7.10
2023-01-12T03:45:58.837Z,6.50
2023-01-12T03:49:03.051Z,6.10
2023-01-12T03:51:50.065Z,6.50
2023-01-12T03:54:38.512Z,6.80
2023-01-12T03:57:25.924Z,7.10
2023-01-12T04:00:13.696Z,7.00
2023-01-12T04:03:18.806Z,7.10
2023-01-12T04:06:04.777Z,7.30
2023-01-12T04:08:50.568Z,7.20
2023-01-12T04:12:02.312Z,7.30
2023-01-12T04:14:50.146Z,7.30
2023-01-12T04:17:36.189Z,7.30
2023-01-12T04:20:22.049Z,7.30
2023-01-12T04:23:07.896Z,7.10
2023-01-12T04:25:53.619Z,6.90
2023-01-12T04:28:39.193Z,7.00
2023-01-12T04:31:24.823Z,7.00
2023-01-12T04:34:10.460Z,7.10
2023-01-12T04:36:56.486Z,7.20
2023-01-12T04:39:42.315Z,7.20
2023-01-12T04:42:46.841Z,7.20
2023-01-12T04:45:35.038Z,7.20
2023-01-12T04:48:20.913Z,6.70
2023-01-12T04:51:06.774Z,6.50
2023-01-12T04:53:53.221Z,6.50
2023-01-12T04:56:38.860Z,6.60
2023-01-12T04:59:24.749Z,6.80
2023-01-12T05:02:11.740Z,6.80
2023-01-12T05:04:57.297Z,6.50
2023-01-12T05:08:02.882Z,6.30
2023-01-12T05:10:57.021Z,6.20
2023-01-12T05:13:43.343Z,6.30
2023-01-12T05:16:29.394Z,6.30
2023-01-12T05:19:15.760Z,6.40
2023-01-12T05:22:01.505Z,6.50
2023-01-12T05:24:47.258Z,6.40
2023-01-12T05:27:32.796Z,6.40
2023-01-12T05:30:18.406Z,6.20
2023-01-12T05:33:04.054Z,6.20
2023-01-12T05:35:49.431Z,6.00
2023-01-12T05:38:35.512Z,6.10
2023-01-12T05:41:23.191Z,6.20
2023-01-12T05:44:08.838Z,6.40
2023-01-12T05:46:54.903Z,6.30
2023-01-12T05:49:40.983Z,6.30
2023-01-12T05:52:26.743Z,6.40
2023-01-12T05:55:12.752Z,6.30
2023-01-12T05:57:59.794Z,6.30
2023-01-12T06:00:45.532Z,6.20
2023-01-12T06:03:31.683Z,6.00
2023-01-12T06:06:18.937Z,6.20
2023-01-12T06:09:05.239Z,6.10
2023-01-12T06:12:09.116Z,6.10
2023-01-12T06:14:55.273Z,5.80
2023-01-12T06:17:41.046Z,6.00
2023-01-12T06:20:26.949Z,6.00
2023-01-12T06:23:12.641Z,6.10
2023-01-12T06:26:01.582Z,6.10
2023-01-12T06:28:47.701Z,6.20
2023-01-12T06:31:33.819Z,6.10
2023-01-12T06:34:20.339Z,6.00
2023-01-12T06:37:08.263Z,5.90
2023-01-12T06:39:53.949Z,6.00
2023-01-12T06:42:42.885Z,5.70
2023-01-12T06:45:28.728Z,5.70
2023-01-12T06:48:14.300Z,5.70
2023-01-12T06:51:05.144Z,5.70
2023-01-12T06:53:50.723Z,5.80
2023-01-12T06:56:36.663Z,5.80
2023-01-12T06:59:22.402Z,6.90
2023-01-12T07:02:13.401Z,6.10
2023-01-12T07:04:59.113Z,5.90
2023-01-12T07:07:45.140Z,5.90
2023-01-12T07:10:32.623Z,5.90
2023-01-12T07:13:18.410Z,6.10
2023-01-12T07:16:04.765Z,6.40
2023-01-12T07:18:50.359Z,6.60
2023-01-12T07:21:36.145Z,6.80
2023-01-12T07:24:21.764Z,7.00
2023-01-12T07:27:07.703Z,7.10
2023-01-12T07:29:53.472Z,7.20
2023-01-12T07:32:39.124Z,7.20
2023-01-12T07:35:25.315Z,7.10
2023-01-12T07:38:11.376Z,7.20
2023-01-12T07:41:02.044Z,7.40
2023-01-12T07:43:47.720Z,7.50
2023-01-12T07:46:33.321Z,7.50
2023-01-12T07:49:18.959Z,7.60
2023-01-12T07:52:04.969Z,7.70
2023-01-12T07:54:50.914Z,7.80
2023-01-12T07:57:37.348Z,7.80
2023-01-12T08:00:24.364Z,7.50
2023-01-12T08:03:12.088Z,7.70
2023-01-12T08:05:58.104Z,7.70
2023-01-12T08:08:44.196Z,7.50
2023-01-12T08:11:29.875Z,7.50
2023-01-12T08:14:27.747Z,7.40
2023-01-12T08:17:20.186Z,7.40
2023-01-12T08:20:14.434Z,7.40
2023-01-12T08:23:12.559Z,7.30
2023-01-12T08:26:05.042Z,7.30
2023-01-12T08:28:58.086Z,7.50
2023-01-12T08:31:45.683Z,7.30
2023-01-12T08:34:32.470Z,6.90
2023-01-12T08:37:24.607Z,7.20
2023-01-12T08:40:11.267Z,7.50
2023-01-12T08:42:58.651Z,7.70
2023-01-12T08:45:44.328Z,7.70
2023-01-12T08:48:29.985Z,7.70
2023-01-12T08:51:16.174Z,7.90
2023-01-12T08:54:02.931Z,8.00
2023-01-12T08:56:49.587Z,8.20
2023-01-12T08:59:35.255Z,8.40
2023-01-12T09:02:21.542Z,8.40
2023-01-12T09:05:07.784Z,8.50
2023-01-12T09:07:53.269Z,8.70
2023-01-12T09:10:38.996Z,9.00
2023-01-12T09:13:24.716Z,9.20
2023-01-12T09:16:13.680Z,9.30
2023-01-12T09:18:59.667Z,9.40
2023-01-12T09:21:45.659Z,9.50
2023-01-12T09:24:31.726Z,9.60
2023-01-12T09:27:17.567Z,9.80
2023-01-12T09:30:03.968Z,10.40
2023-01-12T09:32:49.843Z,11.80
2023-01-12T09:35:35.365Z,13.60
2023-01-12T09:38:21.566Z,15.10
2023-01-12T09:41:16.897Z,15.70
2023-01-12T09:44:21.417Z,16.20
2023-01-12T09:47:39.840Z,15.00
2023-01-12T09:50:28.377Z,14.10
2023-01-12T09:53:27.211Z,13.80
2023-01-12T09:56:26.479Z,13.10
2023-01-12T09:59:44.972Z,13.00
2023-01-12T10:02:35.436Z,12.90
2023-01-12T10:05:52.586Z,12.70
2023-01-12T10:08:50.552Z,13.30
2023-01-12T10:11:57.394Z,13.50
2023-01-12T10:15:24.188Z,13.20
2023-01-12T10:18:15.524Z,12.90
2023-01-12T10:21:01.543Z,12.70
2023-01-12T10:23:47.665Z,12.30
2023-01-12T10:26:42.059Z,12.10
2023-01-12T10:29:28.523Z,11.70
2023-01-12T10:32:14.339Z,11.20
2023-01-12T10:35:01.453Z,10.90
2023-01-12T10:37:51.229Z,10.90
2023-01-12T10:40:37.334Z,10.70
2023-01-12T10:43:29.195Z,10.60
2023-01-12T10:46:21.517Z,10.70
2023-01-12T10:49:33.535Z,10.70
2023-01-12T10:52:32.052Z,10.80
2023-01-12T10:55:20.377Z,11.10
2023-01-12T10:58:19.195Z,11.30
2023-01-12T11:01:07.587Z,11.50
2023-01-12T11:04:05.155Z,11.60
2023-01-12T11:07:29.283Z,11.60
2023-01-12T11:10:35.547Z,11.60
2023-01-12T11:13:38.581Z,11.30
2023-01-12T11:16:28.611Z,10.50
2023-01-12T11:19:17.465Z,11.20
2023-01-12T11:22:18.568Z,11.40
2023-01-12T11:25:07.386Z,11.70
2023-01-12T11:28:07.964Z,11.80
2023-01-12T11:31:01.906Z,11.70
2023-01-12T11:33:59.971Z,11.00
2023-01-12T11:36:55.718Z,10.90
2023-01-12T11:39:43.757Z,10.90
2023-01-12T11:42:50.904Z,11.40
2023-01-12T11:45:52.566Z,11.50
2023-01-12T11:48:55.382Z,11.40
2023-01-12T11:51:43.516Z,11.30
2023-01-12T11:54:31.623Z,11.20
2023-01-12T11:57:51.368Z,11.10
2023-01-12T12:00:46.142Z,11.00
2023-01-12T12:04:04.722Z,10.80
2023-01-12T12:07:14.569Z,10.90
2023-01-12T12:10:25.517Z,11.00
2023-01-12T12:13:19.705Z,11.20
2023-01-12T12:16:47.839Z,10.80
2023-01-12T12:19:38.841Z,10.60
2023-01-12T12:22:42.422Z,10.40
2023-01-12T12:25:40.337Z,10.50
2023-01-12T12:28:48.349Z,10.70
2023-01-12T12:31:43.164Z,10.50
2023-01-12T12:34:34.688Z,10.50
2023-01-12T12:37:59.926Z,10.50
2023-01-12T12:41:22.750Z,10.70
2023-01-12T12:45:05.808Z,10.20
2023-01-12T12:48:33.630Z,9.90
2023-01-12T12:51:20.600Z,10.10
2023-01-12T12:54:12.912Z,10.60
2023-01-12T12:56:58.924Z,10.30
2023-01-12T12:59:54.181Z,10.10
2023-01-12T13:02:53.013Z,10.20
2023-01-12T13:05:48.227Z,10.40
2023-01-12T13:08:36.012Z,10.70
2023-01-12T13:11:47.977Z,10.60
2023-01-12T13:14:39.243Z,10.50
2023-01-12T13:17:24.953Z,10.70
2023-01-12T13:20:20.393Z,10.90
2023-01-12T13:23:46.399Z,10.70
2023-01-12T13:26:35.305Z,10.80
2023-01-12T13:29:24.328Z,10.60
2023-01-12T13:32:32.200Z,10.80
2023-01-12T13:35:28.694Z,11.10
2023-01-12T13:38:23.416Z,10.90
2023-01-12T13:41:35.279Z,10.90
2023-01-12T13:44:43.092Z,10.80
2023-01-12T13:47:32.929Z,11.00
2023-01-12T13:50:23.627Z,10.90
2023-01-12T13:53:21.943Z,10.80
2023-01-12T13:56:18.741Z,11.10
2023-01-12T13:59:07.847Z,11.40
2023-01-12T14:01:55.777Z,11.70
2023-01-12T14:05:16.099Z,11.50
2023-01-12T14:08:50.123Z,11.30
2023-01-12T14:11:59.401Z,11.30
2023-01-12T14:15:23.374Z,11.30
2023-01-12T14:18:15.875Z,11.40
2023-01-12T14:21:02.257Z,11.10
2023-01-12T14:23:48.285Z,11.20
2023-01-12T14:26:35.166Z,10.90
2023-01-12T14:29:21.388Z,11.10
2023-01-12T14:32:13.474Z,11.00
2023-01-12T14:34:59.261Z,11.00
2023-01-12T14:37:54.057Z,11.10
2023-01-12T14:40:39.957Z,11.00
2023-01-12T14:43:44.248Z,10.90
2023-01-12T14:46:33.751Z,11.10
2023-01-12T14:49:23.141Z,11.00
2023-01-12T14:52:26.222Z,11.30
2023-01-12T14:55:39.918Z,11.30
2023-01-12T14:58:28.064Z,10.90
2023-01-12T15:01:34.151Z,10.90
2023-01-12T15:04:24.222Z,10.70
2023-01-12T15:07:18.983Z,10.20
2023-01-12T15:10:28.019Z,10.70
2023-01-12T15:13:30.922Z,11.20
2023-01-12T15:16:34.845Z,11.00
2023-01-12T15:19:39.626Z,11.00
2023-01-12T15:22:47.478Z,10.40
2023-01-12T15:25:39.218Z,10.20
2023-01-12T15:28:28.067Z,10.00
2023-01-12T15:31:19.709Z,9.90
2023-01-12T15:34:06.545Z,10.00
2023-01-12T15:36:52.220Z,10.10
2023-01-12T15:39:38.045Z,10.50
2023-01-12T15:42:26.416Z,10.70
2023-01-12T15:45:29.120Z,10.90
2023-01-12T15:48:14.983Z,10.80
2023-01-12T15:51:00.454Z,11.00
2023-01-12T15:53:46.049Z,11.10
2023-01-12T15:56:31.854Z,11.00
2023-01-12T15:59:17.950Z,11.00
2023-01-12T16:02:05.076Z,11.00
2023-01-12T16:04:50.919Z,10.90
2023-01-12T16:07:37.309Z,10.80
2023-01-12T16:10:22.941Z,10.40
2023-01-12T16:13:11.951Z,10.80
2023-01-12T16:15:57.618Z,10.90
2023-01-12T16:18:44.030Z,10.90
2023-01-12T16:21:29.782Z,10.90
2023-01-12T16:24:15.527Z,10.70
2023-01-12T16:27:02.010Z,10.60
2023-01-12T16:29:48.919Z,10.60
2023-01-12T16:32:34.618Z,10.50
2023-01-12T16:35:21.132Z,10.30
2023-01-12T16:38:06.667Z,10.40
2023-01-12T16:40:52.612Z,10.30
2023-01-12T16:43:38.645Z,10.10
2023-01-12T16:46:24.475Z,10.10
2023-01-12T16:49:10.410Z,10.30
2023-01-12T16:51:56.758Z,10.30
2023-01-12T16:54:43.651Z,10.10
2023-01-12T16:57:29.290Z,10.10
2023-01-12T17:00:16.364Z,10.20
2023-01-12T17:03:02.731Z,10.00
2023-01-12T17:05:49.031Z,9.70
2023-01-12T17:08:36.520Z,9.70
2023-01-12T17:11:27.747Z,9.70
2023-01-12T17:14:23.247Z,9.40
2023-01-12T17:17:10.976Z,9.40
2023-01-12T17:19:57.204Z,9.40
2023-01-12T17:22:43.780Z,9.40
2023-01-12T17:25:29.876Z,9.50
2023-01-12T17:28:15.842Z,9.50
2023-01-12T17:31:07.948Z,9.40
2023-01-12T17:33:53.781Z,9.40
2023-01-12T17:36:45.035Z,9.20
2023-01-12T17:39:31.377Z,9.10
2023-01-12T17:42:37.243Z,9.10
2023-01-12T17:45:23.029Z,9.20
2023-01-12T17:48:13.002Z,9.30
2023-01-12T17:50:58.591Z,9.20
2023-01-12T17:53:44.535Z,9.10
2023-01-12T17:56:32.813Z,9.00
2023-01-12T17:59:21.260Z,8.80
2023-01-12T18:02:07.479Z,8.60
2023-01-12T18:04:53.276Z,8.80
2023-01-12T18:07:41.945Z,8.80
2023-01-12T18:10:28.268Z,8.70
2023-01-12T18:13:14.211Z,8.50
2023-01-12T18:16:01.439Z,8.60
2023-01-12T18:18:47.314Z,8.90
2023-01-12T18:21:33.842Z,8.80
2023-01-12T18:24:19.365Z,8.90
2023-01-12T18:27:05.188Z,8.90
2023-01-12T18:29:51.070Z,8.70
2023-01-12T18:32:36.957Z,8.90
2023-01-12T18:35:22.688Z,8.90
2023-01-12T18:38:08.348Z,9.00
2023-01-12T18:41:13.021Z,9.00
2023-01-12T18:44:08.286Z,8.70
2023-01-12T18:47:15.098Z,8.90
2023-01-12T18:50:20.481Z,8.90
2023-01-12T18:53:24.350Z,8.90
2023-01-12T18:56:09.773Z,8.60
2023-01-12T18:58:55.808Z,9.00
2023-01-12T19:01:41.227Z,9.00
2023-01-12T19:04:45.583Z,9.00
2023-01-12T19:07:33.767Z,9.10
2023-01-12T19:10:19.337Z,9.20
2023-01-12T19:13:23.428Z,9.00
2023-01-12T19:16:32.362Z,9.00
2023-01-12T19:19:21.977Z,9.00
2023-01-12T19:22:26.011Z,8.90
2023-01-12T19:25:32.441Z,8.90
2023-01-12T19:28:35.784Z,8.80
2023-01-12T19:31:22.016Z,9.00
2023-01-12T19:34:08.113Z,9.00
2023-01-12T19:36:54.087Z,9.20
2023-01-12T19:40:00.604Z,9.10
2023-01-12T19:43:04.944Z,9.40
2023-01-12T19:45:59.099Z,9.50
2023-01-12T19:48:46.330Z,9.60
2023-01-12T19:51:32.906Z,9.60
2023-01-12T19:54:18.433Z,9.50
2023-01-12T19:57:04.374Z,9.50
2023-01-12T19:59:50.304Z,9.70
2023-01-12T20:02:36.057Z,9.80
2023-01-12T20:05:24.562Z,9.70
2023-01-12T20:08:11.289Z,9.70
2023-01-12T20:10:59.054Z,9.90
2023-01-12T20:13:44.895Z,9.80
2023-01-12T20:16:30.707Z,9.50
2023-01-12T20:19:19.101Z,9.70
2023-01-12T20:22:04.816Z,9.60
2023-01-12T20:24:50.628Z,9.60
2023-01-12T20:27:37.966Z,9.60
2023-01-12T20:30:37.375Z,9.60
2023-01-12T20:33:24.526Z,9.50
2023-01-12T20:36:11.981Z,9.50
2023-01-12T20:38:58.921Z,9.50
2023-01-12T20:41:44.805Z,9.50
2023-01-12T20:44:30.492Z,9.50
2023-01-12T20:47:18.989Z,9.40
2023-01-12T20:50:07.708Z,9.10
2023-01-12T20:52:54.338Z,8.60
2023-01-12T20:55:49.687Z,8.60
2023-01-12T20:58:36.146Z,8.90
2023-01-12T21:01:22.172Z,9.10
2023-01-12T21:04:07.935Z,8.30
2023-01-12T21:06:53.697Z,7.70
2023-01-12T21:09:39.719Z,7.90
2023-01-12T21:12:27.495Z,8.20
2023-01-12T21:15:13.553Z,8.20
2023-01-12T21:17:59.295Z,8.20
2023-01-12T21:20:44.897Z,8.20
2023-01-12T21:23:31.531Z,8.30
2023-01-12T21:26:17.353Z,8.10
2023-01-12T21:29:03.552Z,8.10
2023-01-12T21:31:49.433Z,8.30
2023-01-12T21:34:35.093Z,8.60
2023-01-12T21:37:20.778Z,8.80
2023-01-12T21:40:07.827Z,8.70
2023-01-12T21:43:08.650Z,8.70
2023-01-12T21:45:55.133Z,8.80
2023-01-12T21:48:40.796Z,8.80
2023-01-12T21:51:26.243Z,8.70
2023-01-12T21:54:11.971Z,8.60
2023-01-12T21:56:58.860Z,8.70
2023-01-12T21:59:44.418Z,8.70
2023-01-12T22:02:31.329Z,8.80
2023-01-12T22:05:18.452Z,8.90
2023-01-12T22:08:04.159Z,8.80
2023-01-12T22:10:50.153Z,8.60
2023-01-12T22:13:36.583Z,8.30
2023-01-12T22:16:22.490Z,8.60
2023-01-12T22:19:08.432Z,8.80
2023-01-12T22:21:53.921Z,8.90
2023-01-12T22:24:39.324Z,9.20
2023-01-12T22:27:26.645Z,9.10
2023-01-12T22:30:15.792Z,9.20
2023-01-12T22:33:01.350Z,9.10
2023-01-12T22:35:47.752Z,9.10
2023-01-12T22:38:34.270Z,9.10
2023-01-12T22:41:22.292Z,9.10
2023-01-12T22:44:08.377Z,9.10
2023-01-12T22:46:54.074Z,9.00
2023-01-12T22:49:41.046Z,9.00
2023-01-12T22:52:28.184Z,9.00
2023-01-12T22:55:13.955Z,8.90
2023-01-12T22:58:00.001Z,8.70
2023-01-12T23:00:45.482Z,8.70
2023-01-12T23:03:31.407Z,8.30
2023-01-12T23:06:17.761Z,7.80
2023-01-12T23:09:03.603Z,8.10
2023-01-12T23:11:49.176Z,8.30
2023-01-12T23:14:34.744Z,8.00
2023-01-12T23:17:20.394Z,7.70
2023-01-12T23:20:06.518Z,7.60
2023-01-12T23:22:51.907Z,7.70
2023-01-12T23:25:37.989Z,7.80
2023-01-12T23:28:23.810Z,7.60
2023-01-12T23:31:13.415Z,8.00
2023-01-12T23:34:01.202Z,8.40
2023-01-12T23:36:46.874Z,8.20
2023-01-12T23:39:32.526Z,8.20
2023-01-12T23:42:18.406Z,8.50
2023-01-12T23:45:04.295Z,8.60
2023-01-12T23:47:51.093Z,8.60
2023-01-12T23:50:36.613Z,8.40
2023-01-12T23:53:22.084Z,8.20
2023-01-12T23:56:10.423Z,8.20
2023-01-12T23:58:56.487Z,8.30
